CheckWX is a tool to help pilots better visualize weather data.  It is not intended as a substitute for an official pre-flight weather briefing.

13:04:18 UTC

KPRS METAR
Presidio Lely International Airport
Presidio, Texas, USA
Current

29 mins ago

KPRS 181235Z AUTO 02010G15KT 10SM CLR 11/M04 A2999 RMK AO2 T01051043
Observed
Feb-18 @ 12:35 UTC
Wind
  • 020° at 10 KTS
  • Gusting to 15 KTS
Visibility
10 SM
Flight Rules
VFR
Cloud Levels
  • Clear skies
Temperature
11°C / 52°F
Dewpoint
-4°C / 25°F
Humidity
35%
Altimeter
29.99" Hg
Pressure
1015.62 hPa
Previous

49 mins ago

KPRS 181215Z AUTO 02009G14KT 10SM CLR 11/M05 A2998 RMK AO2 T01061046
Observed
Feb-18 @ 12:15 UTC
Wind
  • 020° at 9 KTS
  • Gusting to 14 KTS
Visibility
10 SM
Flight Rules
VFR
Cloud Levels
  • Clear skies
Temperature
11°C / 52°F
Dewpoint
-5°C / 23°F
Humidity
32%
Altimeter
29.98" Hg
Pressure
1015.22 hPa
Previous

1 hour ago

KPRS 181155Z AUTO 03010G15KT 10SM CLR 11/M04 A2998 RMK AO2 T01061045 10141 20106
Observed
Feb-18 @ 11:55 UTC
Wind
  • 030° at 10 KTS
  • Gusting to 15 KTS
Visibility
10 SM
Flight Rules
VFR
Cloud Levels
  • Clear skies
Temperature
11°C / 52°F
Dewpoint
-5°C / 23°F
Humidity
32%
Altimeter
29.98" Hg
Pressure
1015.22 hPa